Saint John, Washington
Current Conditions -  °F | °C
As of 11:53 AM on Friday 28 Nov 2014 (Local Time) from KPUW Reporting Station
Overcast Overcast  
Wind Chill: 12°   Ceiling: 5500
Heat Index: 12°   Visibility: 10mi
Dew Point:   Wind: 9mph
Humidity: 64%   Direction: 190°S
Pressure: 29.53"   Gusts: NA
Location:  47.09°N, 117.58°W
Report Text: KPUW 281953Z AUTO 19008KT 10SM OVC055 12/06 A2953 RMK AO2 SLP998 T01220056
Loading
Personal Weather Stations






























Interactive Weather Map New forecast layout! Learn more

10-Day Weather Forecast

Advertisements
Track Severe Weather on mobile